Time;durP1;ratioP1;P1;durP2;ratioP2;P2;SDS_P1;SDS_P2;PMS_P1;PMS_P2;Temp;Humidity;BMP_temperature;BMP_pressure;BME280_temperature;BME280_humidity;BME280_pressure;Samples;Min_cycle;Max_cycle;Signal;HPM_P1;HPM_P2
2022/10/10 00:00:53;;;;;;;6.72;2.70;;;;;;;;;;6136195;23;20514;-90
2022/10/10 00:03:59;;;;;;;6.38;3.03;;;;;;;;;;6117234;23;20669;-91
2022/10/10 00:07:04;;;;;;;7.82;2.40;;;;;;;;;;6118326;23;20152;-92
2022/10/10 00:10:10;;;;;;;8.23;2.78;;;;;;;;;;6118678;23;20226;-91
2022/10/10 00:13:16;;;;;;;13.15;3.15;;;;;;;;;;6120228;23;20297;-90
2022/10/10 00:16:31;;;;;;;8.43;3.03;;;;;;;;;;6119131;23;20622;-91
2022/10/10 00:19:36;;;;;;;6.00;2.72;;;;;;;;;;6118167;23;20297;-91
2022/10/10 00:22:42;;;;;;;7.97;3.13;;;;;;;;;;6117738;23;20165;-90
2022/10/10 00:25:47;;;;;;;14.35;4.55;;;;;;;;;;6117659;23;20225;-91
2022/10/10 00:28:54;;;;;;;13.10;4.70;;;;;;;;;;6119808;23;20206;-90
2022/10/10 00:31:59;;;;;;;10.52;2.92;;;;;;;;;;6119014;23;20176;-91
2022/10/10 00:35:04;;;;;;;9.20;2.97;;;;;;;;;;6117967;23;20285;-89
2022/10/10 00:38:10;;;;;;;7.43;2.83;;;;;;;;;;6117903;23;20209;-91
2022/10/10 00:41:14;;;;;;;5.35;2.78;;;;;;;;;;6117906;23;20173;-91
2022/10/10 00:44:21;;;;;;;8.52;2.80;;;;;;;;;;6118145;23;20172;-91
2022/10/10 00:47:26;;;;;;;7.57;3.00;;;;;;;;;;6119685;23;20260;-91
2022/10/10 00:50:32;;;;;;;5.35;2.65;;;;;;;;;;6118502;23;20177;-92
2022/10/10 00:53:39;;;;;;;11.80;3.00;;;;;;;;;;6116871;23;20613;-91
2022/10/10 00:56:46;;;;;;;5.28;2.70;;;;;;;;;;6118923;23;20491;-92
2022/10/10 00:59:53;;;;;;;9.30;2.53;;;;;;;;;;6117762;23;20695;-92
2022/10/10 01:02:58;;;;;;;11.40;2.63;;;;;;;;;;6118402;23;20173;-92
2022/10/10 01:06:03;;;;;;;5.45;2.80;;;;;;;;;;6120160;23;20177;-91
2022/10/10 01:09:08;;;;;;;6.13;2.40;;;;;;;;;;6117373;23;20192;-91
2022/10/10 01:12:18;;;;;;;8.90;3.10;;;;;;;;;;6117675;23;20219;-91
2022/10/10 01:15:28;;;;;;;11.95;2.88;;;;;;;;;;6119028;23;20285;-91
2022/10/10 01:18:41;;;;;;;11.65;3.00;;;;;;;;;;6118138;23;20168;-91
2022/10/10 01:21:49;;;;;;;9.13;2.65;;;;;;;;;;6118848;23;20165;-91
2022/10/10 01:24:57;;;;;;;6.55;2.40;;;;;;;;;;6118403;23;20169;-91
2022/10/10 01:28:03;;;;;;;13.52;2.40;;;;;;;;;;6117982;23;20197;-90
2022/10/10 01:31:13;;;;;;;5.78;2.58;;;;;;;;;;6117466;23;20181;-92
2022/10/10 01:34:22;;;;;;;12.38;2.47;;;;;;;;;;6119173;23;20624;-90
2022/10/10 01:37:29;;;;;;;6.90;2.33;;;;;;;;;;6119557;23;20260;-91
2022/10/10 01:40:37;;;;;;;4.18;2.15;;;;;;;;;;6119994;23;20165;-92
2022/10/10 01:43:42;;;;;;;4.68;2.20;;;;;;;;;;6118924;23;20525;-90
2022/10/10 01:46:49;;;;;;;3.72;2.28;;;;;;;;;;6120263;23;20193;-92
2022/10/10 01:49:57;;;;;;;17.67;2.80;;;;;;;;;;6119399;23;20197;-91
2022/10/10 01:53:08;;;;;;;7.47;2.53;;;;;;;;;;6136549;23;20169;-92
2022/10/10 01:56:16;;;;;;;8.75;2.78;;;;;;;;;;6119140;23;20169;-91
2022/10/10 01:59:29;;;;;;;6.07;2.60;;;;;;;;;;6118724;23;20177;-91
2022/10/10 02:02:40;;;;;;;9.27;2.50;;;;;;;;;;6119942;23;20225;-91
2022/10/10 02:05:48;;;;;;;6.35;2.50;;;;;;;;;;6120150;23;20491;-92
2022/10/10 02:08:55;;;;;;;5.47;2.78;;;;;;;;;;6118708;23;20325;-92
2022/10/10 02:12:01;;;;;;;5.38;2.55;;;;;;;;;;6120499;23;20165;-91
2022/10/10 02:15:09;;;;;;;9.82;2.97;;;;;;;;;;6119767;23;20185;-91
2022/10/10 02:22:30;;;;;;;6.43;2.90;;;;;;;;;;6137082;23;20145;-90
2022/10/10 02:25:39;;;;;;;5.17;2.53;;;;;;;;;;6119235;23;20169;-91
2022/10/10 02:28:47;;;;;;;11.18;2.90;;;;;;;;;;6121478;23;20173;-90
2022/10/10 02:31:57;;;;;;;6.20;2.63;;;;;;;;;;6119718;23;20165;-91
2022/10/10 02:35:05;;;;;;;5.67;2.47;;;;;;;;;;6117933;23;20169;-90
2022/10/10 02:38:14;;;;;;;6.03;2.73;;;;;;;;;;6120758;23;20532;-90
2022/10/10 02:41:20;;;;;;;6.60;2.70;;;;;;;;;;6119074;23;20182;-91
2022/10/10 02:44:26;;;;;;;7.80;2.85;;;;;;;;;;6119465;23;20165;-91
2022/10/10 02:47:31;;;;;;;7.57;2.90;;;;;;;;;;6119430;23;20177;-91
2022/10/10 02:50:37;;;;;;;5.77;2.60;;;;;;;;;;6118868;23;20173;-90
2022/10/10 02:53:43;;;;;;;8.97;3.00;;;;;;;;;;6119858;23;20152;-91
2022/10/10 02:56:48;;;;;;;14.53;2.50;;;;;;;;;;6118611;23;20170;-91
2022/10/10 02:59:53;;;;;;;4.40;2.08;;;;;;;;;;6120112;23;20150;-91
2022/10/10 03:02:58;;;;;;;7.80;2.67;;;;;;;;;;6119403;23;20162;-91
2022/10/10 03:06:03;;;;;;;4.70;2.28;;;;;;;;;;6120124;23;20189;-91
2022/10/10 03:09:10;;;;;;;10.65;4.88;;;;;;;;;;6119917;23;20192;-91
2022/10/10 03:12:15;;;;;;;4.72;2.42;;;;;;;;;;6119128;23;20188;-91
2022/10/10 03:15:20;;;;;;;9.65;2.90;;;;;;;;;;6120286;23;20556;-90
2022/10/10 03:18:25;;;;;;;7.32;2.58;;;;;;;;;;6120127;23;20169;-90
2022/10/10 03:21:31;;;;;;;6.32;2.50;;;;;;;;;;6118658;23;20178;-90
2022/10/10 03:24:37;;;;;;;6.97;2.72;;;;;;;;;;6120853;23;20165;-90
2022/10/10 03:27:42;;;;;;;7.20;2.92;;;;;;;;;;6119554;23;20541;-91
2022/10/10 03:30:47;;;;;;;5.35;2.78;;;;;;;;;;6119693;23;20238;-90
2022/10/10 03:33:53;;;;;;;8.00;2.72;;;;;;;;;;6117249;23;20190;-90
2022/10/10 03:36:58;;;;;;;5.77;2.73;;;;;;;;;;6119115;23;20181;-91
2022/10/10 03:40:04;;;;;;;6.47;2.83;;;;;;;;;;6118189;23;20249;-92
2022/10/10 03:43:10;;;;;;;6.30;2.75;;;;;;;;;;6119021;23;20153;-91
2022/10/10 03:46:15;;;;;;;9.83;3.23;;;;;;;;;;6118522;23;20220;-91
2022/10/10 03:49:19;;;;;;;7.63;3.20;;;;;;;;;;6118845;23;20197;-92
2022/10/10 03:52:24;;;;;;;7.77;3.20;;;;;;;;;;6118475;23;20231;-90
2022/10/10 03:55:30;;;;;;;11.07;3.30;;;;;;;;;;6117383;23;20224;-90
2022/10/10 03:58:37;;;;;;;7.03;2.80;;;;;;;;;;6118380;23;20153;-89
2022/10/10 04:02:09;;;;;;;7.05;3.05;;;;;;;;;;6116240;23;20216;-91
2022/10/10 04:05:14;;;;;;;9.20;2.90;;;;;;;;;;6117665;23;20512;-89
2022/10/10 04:08:19;;;;;;;11.93;3.13;;;;;;;;;;6117465;23;20687;-90
2022/10/10 04:11:26;;;;;;;11.93;3.07;;;;;;;;;;6116721;23;20173;-89
2022/10/10 04:14:31;;;;;;;5.73;3.13;;;;;;;;;;6117457;23;20632;-91
2022/10/10 04:17:36;;;;;;;10.87;3.80;;;;;;;;;;6117826;23;20213;-89
2022/10/10 04:20:41;;;;;;;16.67;3.93;;;;;;;;;;6117891;23;20730;-90
2022/10/10 04:23:47;;;;;;;9.13;3.67;;;;;;;;;;6116731;23;20220;-90
2022/10/10 04:26:53;;;;;;;7.73;3.63;;;;;;;;;;6114739;23;20209;-91
2022/10/10 04:29:59;;;;;;;41.83;7.30;;;;;;;;;;6116355;23;20193;-91
2022/10/10 04:33:04;;;;;;;24.60;4.47;;;;;;;;;;6116613;23;20212;-92
2022/10/10 04:36:09;;;;;;;14.97;4.83;;;;;;;;;;6133671;23;20348;-90
2022/10/10 04:39:14;;;;;;;10.13;3.93;;;;;;;;;;6117164;23;20153;-91
2022/10/10 04:42:21;;;;;;;11.57;3.83;;;;;;;;;;6136349;23;20184;-90
2022/10/10 04:45:26;;;;;;;11.80;3.60;;;;;;;;;;6118073;23;20173;-89
2022/10/10 04:48:31;;;;;;;16.27;4.40;;;;;;;;;;6118000;23;20227;-89
2022/10/10 04:51:37;;;;;;;6.67;3.20;;;;;;;;;;6118741;23;20651;-90
2022/10/10 04:54:42;;;;;;;5.73;3.10;;;;;;;;;;6118967;23;20186;-90
2022/10/10 04:57:48;;;;;;;9.97;3.50;;;;;;;;;;6118785;23;20173;-90
2022/10/10 05:00:57;;;;;;;9.70;3.20;;;;;;;;;;6115288;23;20172;-91
2022/10/10 05:04:02;;;;;;;11.67;3.33;;;;;;;;;;6117925;23;20173;-89
2022/10/10 05:07:08;;;;;;;11.07;3.97;;;;;;;;;;6091383;23;20181;-90
2022/10/10 05:10:13;;;;;;;7.50;3.40;;;;;;;;;;6119351;23;20197;-90
2022/10/10 05:13:33;;;;;;;11.23;3.70;;;;;;;;;;6120745;23;20660;-90
2022/10/10 05:16:40;;;;;;;16.50;4.57;;;;;;;;;;6120048;23;20180;-89
2022/10/10 05:19:45;;;;;;;12.63;4.00;;;;;;;;;;6123689;23;20165;-90
2022/10/10 05:22:50;;;;;;;13.67;3.53;;;;;;;;;;6120826;23;20177;-92
2022/10/10 05:25:55;;;;;;;9.03;4.00;;;;;;;;;;6121939;23;20256;-91
2022/10/10 05:29:04;;;;;;;10.77;4.50;;;;;;;;;;6124363;23;20169;-91
2022/10/10 05:32:11;;;;;;;9.07;3.57;;;;;;;;;;6121919;23;20722;-91
2022/10/10 05:35:16;;;;;;;12.90;5.07;;;;;;;;;;6120954;23;20169;-89
2022/10/10 05:38:21;;;;;;;10.13;3.47;;;;;;;;;;6120771;23;20608;-91
2022/10/10 05:41:26;;;;;;;8.50;3.53;;;;;;;;;;6122890;23;20174;-90
2022/10/10 05:44:32;;;;;;;12.80;4.23;;;;;;;;;;6125857;23;20177;-91
2022/10/10 05:47:42;;;;;;;8.07;3.40;;;;;;;;;;6122420;23;20236;-90
2022/10/10 05:50:48;;;;;;;10.13;3.40;;;;;;;;;;6122599;23;20254;-91
2022/10/10 05:53:55;;;;;;;8.33;3.63;;;;;;;;;;6123344;23;20152;-91
2022/10/10 05:57:04;;;;;;;12.03;3.53;;;;;;;;;;6122979;23;20177;-85
2022/10/10 06:00:10;;;;;;;11.27;3.90;;;;;;;;;;6123926;23;20201;-91
2022/10/10 06:03:17;;;;;;;12.53;3.87;;;;;;;;;;6121418;23;20257;-90
2022/10/10 06:06:23;;;;;;;7.40;3.37;;;;;;;;;;6123414;23;20251;-92
2022/10/10 06:09:34;;;;;;;9.23;4.37;;;;;;;;;;6125437;23;20254;-92
2022/10/10 06:12:39;;;;;;;9.67;4.00;;;;;;;;;;6122546;23;20190;-90
2022/10/10 06:15:45;;;;;;;12.40;3.80;;;;;;;;;;6122996;23;20641;-91
2022/10/10 06:18:51;;;;;;;10.47;3.70;;;;;;;;;;6121539;23;20503;-91
2022/10/10 06:21:57;;;;;;;19.10;4.93;;;;;;;;;;6123029;23;20153;-91
2022/10/10 06:25:02;;;;;;;8.20;3.63;;;;;;;;;;6122184;23;20625;-90
2022/10/10 06:28:07;;;;;;;10.00;3.17;;;;;;;;;;6121635;23;20165;-90
2022/10/10 06:31:13;;;;;;;8.20;3.43;;;;;;;;;;6123427;23;20200;-90
2022/10/10 06:34:20;;;;;;;13.20;3.90;;;;;;;;;;6122906;23;20176;-92
2022/10/10 06:37:25;;;;;;;8.37;3.87;;;;;;;;;;6122178;23;20189;-91
2022/10/10 06:40:30;;;;;;;8.55;4.28;;;;;;;;;;6123949;23;20169;-91
2022/10/10 06:43:35;;;;;;;6.95;3.67;;;;;;;;;;6121395;23;20164;-89
2022/10/10 06:46:41;;;;;;;10.98;4.28;;;;;;;;;;6122315;23;20181;-90
2022/10/10 06:49:48;;;;;;;10.00;4.30;;;;;;;;;;6123725;23;20252;-91
2022/10/10 06:52:53;;;;;;;10.63;3.92;;;;;;;;;;6122011;23;20240;-90
2022/10/10 06:55:58;;;;;;;10.37;3.80;;;;;;;;;;6123240;23;20170;-90
2022/10/10 06:59:03;;;;;;;11.00;3.63;;;;;;;;;;6122645;23;20169;-91
2022/10/10 07:02:12;;;;;;;14.60;4.00;;;;;;;;;;6122831;23;20169;-92
2022/10/10 07:05:19;;;;;;;14.90;3.35;;;;;;;;;;6125187;23;20610;-91
2022/10/10 07:08:24;;;;;;;8.63;4.35;;;;;;;;;;6122116;23;20173;-90
2022/10/10 07:11:30;;;;;;;9.75;3.55;;;;;;;;;;6124651;23;20217;-90
2022/10/10 07:14:35;;;;;;;9.07;3.50;;;;;;;;;;6123484;23;20606;-91
2022/10/10 07:17:40;;;;;;;5.78;3.17;;;;;;;;;;6121805;23;20169;-90
2022/10/10 07:20:47;;;;;;;7.72;3.75;;;;;;;;;;6120699;23;20250;-89
2022/10/10 07:23:54;;;;;;;14.45;3.08;;;;;;;;;;6120993;23;20173;-90
2022/10/10 07:26:59;;;;;;;8.15;4.10;;;;;;;;;;6123223;23;20173;-90
2022/10/10 07:30:05;;;;;;;13.85;4.00;;;;;;;;;;6122465;23;20276;-92
2022/10/10 07:33:10;;;;;;;12.68;4.15;;;;;;;;;;6120627;23;20594;-91
2022/10/10 07:36:18;;;;;;;8.30;3.28;;;;;;;;;;6123026;23;20176;-90
2022/10/10 07:39:24;;;;;;;7.00;3.70;;;;;;;;;;6121228;23;20242;-90
2022/10/10 07:42:30;;;;;;;10.55;3.97;;;;;;;;;;6123172;23;20169;-90
2022/10/10 07:45:36;;;;;;;12.45;4.07;;;;;;;;;;6122314;23;20185;-91
2022/10/10 07:48:42;;;;;;;9.02;3.65;;;;;;;;;;6123087;23;20177;-90
2022/10/10 07:51:48;;;;;;;11.07;4.85;;;;;;;;;;6123060;23;20192;-90
2022/10/10 07:54:53;;;;;;;9.23;4.07;;;;;;;;;;6122131;23;20306;-90
2022/10/10 07:58:01;;;;;;;11.27;4.32;;;;;;;;;;6123017;23;20284;-91
2022/10/10 08:01:07;;;;;;;14.50;5.72;;;;;;;;;;6122121;23;20189;-90
2022/10/10 08:04:12;;;;;;;15.10;4.68;;;;;;;;;;6124585;23;20177;-91
2022/10/10 08:07:19;;;;;;;6.90;3.38;;;;;;;;;;6122257;23;20684;-91
2022/10/10 08:10:27;;;;;;;7.00;3.58;;;;;;;;;;6122624;23;20216;-91
2022/10/10 08:13:36;;;;;;;9.45;3.33;;;;;;;;;;6120089;23;20172;-90
2022/10/10 08:16:41;;;;;;;7.28;3.90;;;;;;;;;;6121463;23;20220;-91
2022/10/10 08:19:46;;;;;;;8.00;3.42;;;;;;;;;;6123216;23;20314;-91
2022/10/10 08:22:53;;;;;;;8.50;4.13;;;;;;;;;;6105480;23;20165;-91
2022/10/10 08:25:59;;;;;;;14.35;3.40;;;;;;;;;;6119632;23;20201;-90
2022/10/10 08:29:05;;;;;;;7.78;3.25;;;;;;;;;;6119025;23;20161;-89
2022/10/10 08:32:10;;;;;;;8.82;3.55;;;;;;;;;;6120849;23;20178;-91
2022/10/10 08:35:15;;;;;;;9.65;3.72;;;;;;;;;;6120504;23;20612;-90
2022/10/10 08:38:22;;;;;;;9.63;3.20;;;;;;;;;;6125028;23;20164;-90
2022/10/10 08:41:32;;;;;;;12.75;3.80;;;;;;;;;;6125544;23;20249;-93
2022/10/10 08:44:38;;;;;;;29.08;4.40;;;;;;;;;;6123111;23;20165;-90
2022/10/10 08:47:46;;;;;;;45.28;6.75;;;;;;;;;;6123731;23;20209;-91
2022/10/10 08:50:52;;;;;;;28.90;4.18;;;;;;;;;;6121833;23;20315;-91
2022/10/10 08:54:00;;;;;;;38.50;3.95;;;;;;;;;;6120790;23;20282;-92
2022/10/10 08:57:06;;;;;;;16.92;3.60;;;;;;;;;;6121673;23;20245;-90
2022/10/10 09:00:16;;;;;;;8.23;3.45;;;;;;;;;;6121390;23;20172;-90
2022/10/10 09:03:25;;;;;;;9.07;3.40;;;;;;;;;;6122357;23;20166;-92
2022/10/10 09:06:37;;;;;;;8.57;3.25;;;;;;;;;;6121600;23;20169;-90
2022/10/10 09:09:47;;;;;;;7.80;3.88;;;;;;;;;;6120966;23;20220;-90
2022/10/10 09:12:59;;;;;;;7.05;3.50;;;;;;;;;;6119657;23;20287;-90
2022/10/10 09:16:07;;;;;;;8.52;3.40;;;;;;;;;;6122801;23;20209;-90
2022/10/10 09:19:23;;;;;;;7.18;3.35;;;;;;;;;;6122851;23;20888;-90
2022/10/10 09:22:29;;;;;;;6.90;3.20;;;;;;;;;;6122238;23;20508;-90
2022/10/10 09:25:39;;;;;;;9.05;3.20;;;;;;;;;;6121659;23;20314;-91
2022/10/10 09:28:46;;;;;;;6.47;3.28;;;;;;;;;;6120430;23;20154;-90
2022/10/10 09:31:53;;;;;;;9.77;3.30;;;;;;;;;;6120950;23;20201;-91
2022/10/10 09:35:00;;;;;;;15.65;4.13;;;;;;;;;;6121386;23;20169;-90
2022/10/10 09:38:15;;;;;;;15.18;6.38;;;;;;;;;;6120990;23;20189;-89
2022/10/10 09:41:23;;;;;;;11.13;3.42;;;;;;;;;;6119750;23;20177;-90
2022/10/10 09:44:29;;;;;;;10.52;3.92;;;;;;;;;;6120744;23;20223;-90
2022/10/10 09:47:34;;;;;;;7.60;3.83;;;;;;;;;;6122818;23;20156;-91
2022/10/10 09:50:40;;;;;;;7.80;4.10;;;;;;;;;;6120270;23;20201;-91
2022/10/10 09:53:46;;;;;;;10.30;3.90;;;;;;;;;;6121486;23;20605;-92
2022/10/10 09:56:55;;;;;;;11.38;3.80;;;;;;;;;;6122529;23;20162;-90
2022/10/10 10:00:00;;;;;;;12.57;3.63;;;;;;;;;;6121539;23;20209;-90
2022/10/10 10:03:10;;;;;;;9.05;3.78;;;;;;;;;;6121507;23;20169;-90
2022/10/10 10:06:16;;;;;;;13.82;3.78;;;;;;;;;;6124367;23;20218;-90
2022/10/10 10:09:22;;;;;;;7.55;3.38;;;;;;;;;;6122733;23;20413;-89
2022/10/10 10:12:30;;;;;;;9.50;3.40;;;;;;;;;;6121087;23;20192;-90
2022/10/10 10:15:36;;;;;;;7.50;3.10;;;;;;;;;;6120991;23;20173;-90
2022/10/10 10:18:42;;;;;;;8.65;3.65;;;;;;;;;;6121089;23;20161;-90
2022/10/10 10:21:51;;;;;;;8.50;3.40;;;;;;;;;;6122067;23;20189;-91
2022/10/10 10:25:22;;;;;;;7.75;3.47;;;;;;;;;;6121186;23;20169;-92
2022/10/10 10:28:29;;;;;;;6.97;3.67;;;;;;;;;;6121380;23;20704;-91
2022/10/10 10:31:50;;;;;;;8.80;3.38;;;;;;;;;;6122314;23;20401;-91
2022/10/10 10:35:16;;;;;;;7.53;3.25;;;;;;;;;;6124873;23;20170;-91
2022/10/10 10:38:25;;;;;;;6.85;3.13;;;;;;;;;;6121317;23;20615;-91
2022/10/10 10:41:34;;;;;;;10.88;3.17;;;;;;;;;;6121615;23;20184;-91
2022/10/10 10:44:43;;;;;;;12.88;3.58;;;;;;;;;;6122099;23;20164;-90
2022/10/10 10:47:55;;;;;;;9.93;3.13;;;;;;;;;;6123840;23;20237;-89
2022/10/10 10:51:02;;;;;;;7.68;2.80;;;;;;;;;;6123529;23;20269;-91
2022/10/10 10:54:11;;;;;;;15.35;2.88;;;;;;;;;;6121976;23;20206;-91
2022/10/10 10:57:19;;;;;;;8.02;2.97;;;;;;;;;;6120374;23;20165;-91
2022/10/10 11:00:29;;;;;;;8.40;2.97;;;;;;;;;;6122192;23;20154;-91
2022/10/10 11:03:42;;;;;;;7.25;2.53;;;;;;;;;;6123561;23;20182;-92
2022/10/10 11:06:57;;;;;;;8.25;2.95;;;;;;;;;;6123287;23;20174;-91
2022/10/10 11:10:15;;;;;;;10.60;3.42;;;;;;;;;;6120986;23;20239;-89
2022/10/10 11:13:25;;;;;;;9.63;3.17;;;;;;;;;;6122485;23;20178;-90
2022/10/10 11:16:35;;;;;;;5.15;2.72;;;;;;;;;;6122409;23;20225;-93
2022/10/10 11:19:43;;;;;;;10.73;3.00;;;;;;;;;;6123645;23;20562;-92
2022/10/10 11:22:51;;;;;;;10.20;3.47;;;;;;;;;;6123111;23;20169;-91
2022/10/10 11:30:17;;;;;;;7.82;3.40;;;;;;;;;;6139867;23;20218;-91
2022/10/10 11:33:27;;;;;;;8.15;3.67;;;;;;;;;;6123990;23;20192;-91
2022/10/10 11:36:35;;;;;;;7.50;3.33;;;;;;;;;;6122604;23;20200;-91
2022/10/10 11:39:44;;;;;;;10.38;3.13;;;;;;;;;;6123090;23;20173;-88
2022/10/10 11:42:54;;;;;;;10.18;3.40;;;;;;;;;;6124030;23;20182;-91
2022/10/10 11:46:03;;;;;;;11.00;3.58;;;;;;;;;;6124052;23;20177;-91
2022/10/10 11:49:17;;;;;;;8.07;2.88;;;;;;;;;;6122279;23;20165;-90
2022/10/10 11:52:25;;;;;;;12.25;3.00;;;;;;;;;;6121614;23;20185;-89
2022/10/10 11:55:39;;;;;;;10.85;3.15;;;;;;;;;;6121878;23;20181;-91
2022/10/10 11:58:47;;;;;;;7.18;3.03;;;;;;;;;;6123276;23;20620;-92
2022/10/10 12:01:53;;;;;;;11.48;3.63;;;;;;;;;;6123219;23;20173;-92
2022/10/10 12:05:00;;;;;;;7.95;2.90;;;;;;;;;;6123188;23;20178;-90
2022/10/10 12:08:09;;;;;;;6.78;3.25;;;;;;;;;;6123252;23;20161;-90
2022/10/10 12:11:18;;;;;;;6.13;2.78;;;;;;;;;;6125410;23;20220;-90
2022/10/10 12:14:26;;;;;;;6.82;2.63;;;;;;;;;;6124171;23;20249;-92
2022/10/10 12:17:33;;;;;;;8.35;3.00;;;;;;;;;;6122127;23;20224;-91
2022/10/10 12:20:40;;;;;;;12.48;2.90;;;;;;;;;;6121655;23;20176;-91
2022/10/10 12:23:48;;;;;;;7.47;3.28;;;;;;;;;;6121382;23;20249;-90
2022/10/10 12:27:26;;;;;;;9.15;3.13;;;;;;;;;;6123034;23;20173;-90
2022/10/10 12:30:31;;;;;;;11.63;3.25;;;;;;;;;;6123919;23;20229;-91
2022/10/10 12:33:51;;;;;;;8.05;3.22;;;;;;;;;;6120069;23;20248;-91
2022/10/10 12:36:59;;;;;;;4.45;2.95;;;;;;;;;;6124090;23;20185;-89
2022/10/10 12:40:28;;;;;;;8.27;3.00;;;;;;;;;;6121376;23;20172;-91
2022/10/10 12:43:39;;;;;;;6.30;3.00;;;;;;;;;;6122324;23;20244;-91
2022/10/10 12:46:44;;;;;;;7.85;3.00;;;;;;;;;;6122506;23;20297;-91
2022/10/10 12:49:50;;;;;;;10.00;3.25;;;;;;;;;;6120954;23;20223;-91
2022/10/10 12:53:01;;;;;;;7.80;2.85;;;;;;;;;;6121290;23;20208;-92
2022/10/10 12:56:07;;;;;;;8.00;2.60;;;;;;;;;;6123559;23;20486;-90
2022/10/10 12:59:19;;;;;;;7.85;2.80;;;;;;;;;;6119920;23;20199;-91
2022/10/10 13:02:26;;;;;;;9.95;2.75;;;;;;;;;;6118924;23;20213;-91
2022/10/10 13:05:33;;;;;;;14.70;3.08;;;;;;;;;;6119456;23;20153;-90
2022/10/10 13:08:41;;;;;;;5.80;2.35;;;;;;;;;;6118910;23;20492;-91
2022/10/10 13:11:58;;;;;;;9.90;2.85;;;;;;;;;;6121195;23;20204;-91
2022/10/10 13:15:03;;;;;;;8.07;2.60;;;;;;;;;;6122019;23;20174;-91
2022/10/10 13:18:08;;;;;;;8.35;3.38;;;;;;;;;;6123039;23;20222;-90
2022/10/10 13:21:15;;;;;;;9.93;2.50;;;;;;;;;;6122021;23;20161;-91
2022/10/10 13:24:25;;;;;;;7.88;2.20;;;;;;;;;;6122354;23;20173;-91
2022/10/10 13:27:31;;;;;;;6.60;2.55;;;;;;;;;;6121144;23;20169;-91
2022/10/10 13:30:38;;;;;;;8.23;2.80;;;;;;;;;;6126155;23;20172;-89
2022/10/10 13:33:44;;;;;;;12.60;3.00;;;;;;;;;;6122425;23;20201;-91
2022/10/10 13:36:49;;;;;;;8.68;2.67;;;;;;;;;;6123128;23;20176;-91
2022/10/10 13:40:04;;;;;;;14.25;2.83;;;;;;;;;;6124359;23;20157;-90
2022/10/10 13:43:13;;;;;;;8.65;2.83;;;;;;;;;;6125957;23;20161;-91
2022/10/10 13:46:20;;;;;;;10.35;2.88;;;;;;;;;;6125707;23;20164;-90
2022/10/10 13:49:27;;;;;;;4.85;2.65;;;;;;;;;;6122736;23;20161;-89
2022/10/10 13:52:32;;;;;;;8.90;2.83;;;;;;;;;;6121508;23;20185;-91
2022/10/10 13:55:39;;;;;;;8.82;2.75;;;;;;;;;;6123999;23;20173;-90
2022/10/10 13:58:46;;;;;;;7.22;2.38;;;;;;;;;;6125058;23;20165;-91
2022/10/10 14:01:55;;;;;;;9.25;2.58;;;;;;;;;;6123880;23;20198;-90
2022/10/10 14:05:04;;;;;;;7.85;2.70;;;;;;;;;;6125848;23;20165;-90
2022/10/10 14:08:14;;;;;;;14.38;3.20;;;;;;;;;;6124781;23;20156;-91
2022/10/10 14:11:23;;;;;;;7.35;2.97;;;;;;;;;;6125499;23;20217;-90
2022/10/10 14:14:33;;;;;;;14.93;5.07;;;;;;;;;;6126856;23;20170;-91
2022/10/10 14:17:39;;;;;;;12.48;2.97;;;;;;;;;;6127094;23;20173;-89
2022/10/10 14:20:44;;;;;;;7.78;2.47;;;;;;;;;;6125113;23;20170;-90
2022/10/10 14:23:49;;;;;;;8.45;2.30;;;;;;;;;;6123604;23;20161;-90
2022/10/10 14:26:57;;;;;;;16.27;3.30;;;;;;;;;;6126132;23;20174;-90
2022/10/10 14:30:02;;;;;;;6.05;2.47;;;;;;;;;;6122546;23;20169;-90
2022/10/10 14:33:10;;;;;;;5.13;2.30;;;;;;;;;;6123379;23;20199;-91
2022/10/10 14:36:16;;;;;;;7.22;2.35;;;;;;;;;;6122352;23;20193;-90
2022/10/10 14:39:23;;;;;;;10.13;2.60;;;;;;;;;;6125597;23;20669;-90
2022/10/10 14:42:30;;;;;;;10.43;2.40;;;;;;;;;;6126946;23;20202;-90
2022/10/10 14:45:36;;;;;;;9.77;2.40;;;;;;;;;;6122435;23;20170;-91
2022/10/10 14:48:45;;;;;;;8.48;2.45;;;;;;;;;;6124916;23;20217;-90
2022/10/10 14:51:50;;;;;;;11.73;2.72;;;;;;;;;;6124025;23;20196;-91
2022/10/10 14:54:55;;;;;;;8.52;2.42;;;;;;;;;;6123142;23;20464;-89
2022/10/10 14:58:10;;;;;;;12.60;4.82;;;;;;;;;;6123831;23;20240;-90
2022/10/10 15:01:19;;;;;;;15.68;5.13;;;;;;;;;;6123803;23;20173;-91
2022/10/10 15:04:24;;;;;;;11.15;2.42;;;;;;;;;;6124177;23;20283;-91
2022/10/10 15:07:30;;;;;;;5.47;2.53;;;;;;;;;;6123076;23;20169;-91
2022/10/10 15:10:35;;;;;;;9.32;2.88;;;;;;;;;;6122404;23;20260;-91
2022/10/10 15:13:43;;;;;;;10.93;2.78;;;;;;;;;;6123352;23;20268;-90
2022/10/10 15:16:48;;;;;;;14.43;2.95;;;;;;;;;;6122742;23;20225;-90
2022/10/10 15:19:59;;;;;;;13.82;4.07;;;;;;;;;;6123786;23;20173;-90
2022/10/10 15:23:05;;;;;;;6.22;2.47;;;;;;;;;;6122788;23;20174;-91
2022/10/10 15:26:11;;;;;;;14.15;2.72;;;;;;;;;;6123020;23;20169;-90
2022/10/10 15:29:17;;;;;;;9.23;2.60;;;;;;;;;;6123078;23;20199;-90
2022/10/10 15:32:22;;;;;;;7.30;2.38;;;;;;;;;;6122297;23;20280;-90
2022/10/10 15:35:27;;;;;;;7.82;2.42;;;;;;;;;;6122045;23;20169;-90
2022/10/10 15:38:34;;;;;;;9.48;2.53;;;;;;;;;;6121152;23;20153;-90
2022/10/10 15:41:39;;;;;;;16.67;5.38;;;;;;;;;;6122711;23;20234;-91
2022/10/10 15:44:47;;;;;;;12.38;3.08;;;;;;;;;;6123984;23;20173;-89
2022/10/10 15:47:54;;;;;;;15.65;3.10;;;;;;;;;;6125484;23;20173;-91
2022/10/10 15:50:59;;;;;;;9.38;3.20;;;;;;;;;;6121691;23;20166;-91
2022/10/10 15:54:05;;;;;;;8.27;2.53;;;;;;;;;;6121333;23;20177;-92
2022/10/10 15:57:10;;;;;;;8.82;3.05;;;;;;;;;;6123237;23;20166;-91
2022/10/10 16:00:17;;;;;;;12.48;3.13;;;;;;;;;;6120791;23;20173;-91
2022/10/10 16:03:22;;;;;;;8.82;2.70;;;;;;;;;;6122964;23;20161;-91
2022/10/10 16:06:27;;;;;;;9.05;2.70;;;;;;;;;;6123252;23;20181;-90
2022/10/10 16:09:32;;;;;;;11.73;3.30;;;;;;;;;;6122892;23;20482;-88
2022/10/10 16:12:37;;;;;;;13.38;3.25;;;;;;;;;;6120838;23;20180;-89
2022/10/10 16:15:44;;;;;;;7.72;3.33;;;;;;;;;;6120549;23;20714;-90
2022/10/10 16:18:50;;;;;;;12.32;4.22;;;;;;;;;;6121496;23;20201;-91
2022/10/10 16:21:56;;;;;;;12.07;4.88;;;;;;;;;;6120957;23;20640;-91
2022/10/10 16:25:01;;;;;;;15.30;5.30;;;;;;;;;;6122620;23;20202;-90
2022/10/10 16:28:06;;;;;;;10.90;3.97;;;;;;;;;;6120620;23;20210;-89
2022/10/10 16:31:14;;;;;;;15.20;4.78;;;;;;;;;;6121256;23;20197;-90
2022/10/10 16:34:19;;;;;;;18.38;7.25;;;;;;;;;;6120454;23;20488;-89
2022/10/10 16:37:23;;;;;;;23.73;10.98;;;;;;;;;;6119883;23;20518;-89
2022/10/10 16:40:42;;;;;;;12.93;7.47;;;;;;;;;;6120992;23;20177;-90
2022/10/10 16:44:26;;;;;;;10.98;5.57;;;;;;;;;;6117766;23;20657;-89
2022/10/10 16:47:34;;;;;;;16.13;4.65;;;;;;;;;;6120509;23;20160;-90
2022/10/10 16:50:40;;;;;;;12.68;5.00;;;;;;;;;;6120248;23;20173;-90
2022/10/10 16:53:45;;;;;;;20.58;6.15;;;;;;;;;;6122099;23;20216;-91
2022/10/10 16:56:51;;;;;;;17.17;5.10;;;;;;;;;;6121160;23;20225;-91
2022/10/10 16:59:56;;;;;;;10.32;5.13;;;;;;;;;;6119551;23;20172;-90
2022/10/10 17:03:03;;;;;;;13.18;5.57;;;;;;;;;;6122499;23;20153;-91
2022/10/10 17:06:10;;;;;;;9.80;4.40;;;;;;;;;;6122131;23;20230;-88
2022/10/10 17:09:16;;;;;;;12.77;5.50;;;;;;;;;;6139054;23;20177;-90
2022/10/10 17:12:20;;;;;;;15.45;5.47;;;;;;;;;;6118480;23;20192;-90
2022/10/10 17:15:26;;;;;;;12.30;5.10;;;;;;;;;;6120417;23;20160;-90
2022/10/10 17:18:32;;;;;;;19.42;5.88;;;;;;;;;;6118260;23;20164;-89
2022/10/10 17:21:38;;;;;;;26.30;7.68;;;;;;;;;;6122814;23;20219;-90
2022/10/10 17:24:44;;;;;;;18.90;5.55;;;;;;;;;;6120252;23;20173;-91
2022/10/10 17:27:49;;;;;;;14.32;5.38;;;;;;;;;;6122188;23;20507;-90
2022/10/10 17:30:55;;;;;;;11.20;5.90;;;;;;;;;;6119818;23;20157;-89
2022/10/10 17:34:01;;;;;;;16.77;6.10;;;;;;;;;;6119122;23;20264;-90
2022/10/10 17:37:06;;;;;;;15.23;5.53;;;;;;;;;;6122475;23;20210;-90
2022/10/10 17:40:12;;;;;;;14.85;6.75;;;;;;;;;;6125225;23;20186;-89
2022/10/10 17:43:17;;;;;;;15.55;6.85;;;;;;;;;;6121039;23;20177;-90
2022/10/10 17:46:23;;;;;;;18.13;9.85;;;;;;;;;;6119302;23;20181;-90
2022/10/10 17:49:29;;;;;;;19.75;9.38;;;;;;;;;;6120201;23;20174;-90
2022/10/10 17:52:35;;;;;;;22.45;11.13;;;;;;;;;;6120074;23;20216;-90
2022/10/10 17:55:41;;;;;;;23.92;8.63;;;;;;;;;;6119949;23;20189;-89
2022/10/10 17:58:47;;;;;;;18.02;8.60;;;;;;;;;;6120075;23;20168;-90
2022/10/10 18:01:52;;;;;;;20.63;8.88;;;;;;;;;;6120701;23;20169;-89
2022/10/10 18:04:59;;;;;;;21.30;9.38;;;;;;;;;;6122078;23;20230;-90
2022/10/10 18:08:04;;;;;;;23.13;8.90;;;;;;;;;;6121006;23;20189;-89
2022/10/10 18:11:12;;;;;;;19.25;9.20;;;;;;;;;;6118658;23;20628;-89
2022/10/10 18:14:17;;;;;;;18.08;9.02;;;;;;;;;;6119617;23;20205;-89
2022/10/10 18:17:23;;;;;;;22.08;7.72;;;;;;;;;;6123159;23;20157;-89
2022/10/10 18:20:30;;;;;;;17.63;8.13;;;;;;;;;;6124510;23;20165;-90
2022/10/10 18:23:37;;;;;;;18.25;7.90;;;;;;;;;;6126334;23;20173;-89
2022/10/10 18:26:45;;;;;;;17.48;8.27;;;;;;;;;;6126091;23;20205;-89
2022/10/10 18:29:51;;;;;;;18.92;8.13;;;;;;;;;;6127166;23;20186;-90
2022/10/10 18:32:56;;;;;;;17.25;8.30;;;;;;;;;;6126528;23;20192;-89
2022/10/10 18:36:05;;;;;;;24.05;9.13;;;;;;;;;;6127597;23;20177;-88
2022/10/10 18:39:12;;;;;;;25.42;8.63;;;;;;;;;;6128529;23;20164;-89
2022/10/10 18:42:18;;;;;;;17.30;8.25;;;;;;;;;;6127864;23;20217;-90